Aktobe Airport
UATT : now visible

Airfield :











YOU CAN JOIN US ON...

 
LOGIN :

Register | Disclaimer

   EN    FR    IT 

 









Legend :    VFR   Marginal VFR   IFR   Intensive IFR   Very Intensive IFR
Visi :
Ceiling :
>= 8 km
>= 3000ft
5 to 8 km
1000 to 3000 ft
1500m to 5 km
500 to 1000 ft
800 to 1500m
200 to 500 ft
< 800m
< 200 ft
Symbols :   Thunderstorms  Fog  Heavy snow  Heavy precipitations  Wind > 20 kt






- Airport Elevation : 738 ft
- IATA code : AKX


UATT - Aktobe

CURRENT METAR :
  • 070930Z 14006MPS CAVOK 28/04 Q1021 R13/70D NOSIG RMK QFE746/0994

EXPIRED METARs :
  • 070900Z 14004MPS 110V180 CAVOK 28/04 Q1021 R13/70D NOSIG RMK QFE746/0995
  • 070830Z 13005MPS 100V190 CAVOK 28/04 Q1021 R13/70D NOSIG RMK QFE746/0995
  • 070800Z 14005MPS 110V170 CAVOK 28/03 Q1021 R13/70D NOSIG RMK QFE746/0995
  • 070730Z 16004MPS 130V190 CAVOK 27/02 Q1021 R13/70D NOSIG RMK QFE746/0995
  • 070700Z 14004MPS 100V170 CAVOK 26/03 Q1021 R13/70D NOSIG RMK QFE746/0995

TAF TAF UATT
Valid from the 07 at 06:00 until the 08 at 06:00 UTC


070500Z 0706/0806 12003MPS 9999 BKN033CB TX29/0712Z TN12/0801Z
TEMPO 0710/0722 12008MPS
UATT FIR / Asia



MET'MAP, your aeronautical weather chart ! - Copyright ORBIFLY December 2007 - Disclaimer

ORBIFLY MET'MAP TEAM :

Programming & Development : Alexandra Zaïnal
Concept & original design : Baudouin d'Aumeries
Assistance for programming : Marc-Olivier Méhu
Technical & hardware support : Manuel Goepfert

Contact : metmap@orbifly.com




SOURCES & CREDITS :

   NOAA       Earth
Advisory